This is the latest recevied weather packets stored in our database for station/object W9WRP. If no packets are shown the sender has not sent any weather packets the latest 1 day(s).
| Time | Temp. | Humidity | Pressure | Rain* | Wind** | Luminosity | Snow |
|---|---|---|---|---|---|---|---|
| 1778005915 | 23.33° C | 28% | 1014.2 hPa | 0 mm | 1.34 m/s, 228° | 821 W/m² | - |
| 1778005610 | 22.22° C | 32% | 1014.1 hPa | 0 mm | 0 m/s | 854 W/m² | - |
| 1778005308 | 22.78° C | 32% | 1014.1 hPa | 0 mm | 0.45 m/s, 226° | 259 W/m² | - |
| 1778005004 | 23.33° C | 31% | 1014.1 hPa | 0 mm | 0.45 m/s, 244° | 180 W/m² | - |
| 1778004701 | 21.67° C | 34% | 1014.2 hPa | 0 mm | 0.89 m/s, 185° | 835 W/m² | - |
| 1778004392 | 22.22° C | 34% | 1014 hPa | 0 mm | 1.34 m/s, 203° | 248 W/m² | - |
| 1778004090 | 22.78° C | 33% | 1014.1 hPa | 0 mm | 0.45 m/s, 264° | 338 W/m² | - |
| 1778003785 | 22.22° C | 35% | 1014.3 hPa | 0 mm | 0.45 m/s, 226° | 230 W/m² | - |
| 1778003481 | 22.78° C | 34% | 1014.1 hPa | 0 mm | 0 m/s | 207 W/m² | - |
| 1778003173 | 22.22° C | 34% | 1014.2 hPa | 0 mm | 0.45 m/s, 257° | 838 W/m² | - |
| 1778002869 | 22.22° C | 34% | 1014 hPa | 0 mm | 0.89 m/s, 202° | 149 W/m² | - |
| 1778002565 | 21.67° C | 35% | 1014.2 hPa | 0 mm | 0 m/s | 788 W/m² | - |
| 1778002262 | 21.67° C | 35% | 1014.1 hPa | 0 mm | 0.45 m/s, 237° | 226 W/m² | - |
| 1778001959 | 22.22° C | 34% | 1014.3 hPa | 0 mm | 0 m/s | 295 W/m² | - |
| 1778001656 | 21.67° C | 35% | 1014.2 hPa | 0 mm | 0.45 m/s, 241° | 845 W/m² | - |
| 1778001351 | 21.67° C | 35% | 1014.1 hPa | 0 mm | 0.45 m/s, 248° | 367 W/m² | - |
| 1778001049 | 20.56° C | 35% | 1014.1 hPa | 0 mm | 0.45 m/s, 235° | 371 W/m² | - |
| 1778000745 | 20.56° C | 36% | 1014.1 hPa | 0 mm | 0.45 m/s, 215° | 235 W/m² | - |
| 1778000442 | 20.56° C | 36% | 1014.1 hPa | 0 mm | 0.45 m/s, 245° | 203 W/m² | - |
| 1778000137 | 20.56° C | 35% | 1014 hPa | 0 mm | 0.45 m/s, 231° | 193 W/m² | - |
| 1777999832 | 21.11° C | 34% | 1014 hPa | 0 mm | 0.45 m/s, 241° | 179 W/m² | - |
| 1777999528 | 21.11° C | 33% | 1014.1 hPa | 0 mm | 0.45 m/s, 202° | 236 W/m² | - |
| 1777999221 | 22.22° C | 32% | 1013.8 hPa | 0 mm | 0 m/s | 242 W/m² | - |
| 1777998920 | 22.22° C | 32% | 1013.9 hPa | 0 mm | 0 m/s | 600 W/m² | - |
| 1777998615 | 21.67° C | 32% | 1014.2 hPa | 0 mm | 1.34 m/s, 186° | 213 W/m² | - |
* Rain latest hour (hover to see other rain measurements)
** Current wind speed in m/s (hover to see current wind gust speed)